Pagrindinis puslapis
METAR-TAF:

METAR-TAF

Oro uostai :

Singapūras, Singapūras

platuma: 01-25-08N, ilguma: 103-51-57E, Aukštis: 11 m

Dabartinis oras

Ataskaita buvo paskelbta 46 minutes, ne 22:00 UTC
Vėjas 1 kt nuo kintamojo kryptimis
Temperatūra 26°C
Drėgmė 89%
Slėgis 1010 hPa
Matomumas 10 km arba daugiau
Mažai debesys ne aukštis 1800 ft
Su prošvaistėmis ne aukštis 30000 ft

METAR: WSSL 122200Z VRB01KT 9999 FEW018 BKN300 26/24 Q1010

Laikas: 06:46 (22:46 UTC)

Prognozė

Ataskaita buvo paskelbta 5 valandos ir 46 minutes, ne 17:00 UTC
Prognozė galioja nuo 12 metu 18 UTC su 14 metu 00 UTC
Vėjas 7 kt iš Rytų/Pietryčių
Matomumas 10 km arba daugiau
Išsisklaidę debesys ne aukštis 2000 ft
Laikinai
nuo 13 metu 05 UTC su 13 metu 09 UTC
Matomumas: 3000 m
Mažai debesys ne aukštis 1200 ft, Liūtiniai kamuoliniai debesys.
Su prošvaistėmis ne aukštis 1500 ft
perkūnija, lietus

TAF: WSSL 121700Z 1218/1400 11007KT 9999 SCT020 TEMPO 1305/1309 3000 TSRA FEW012CB BKN015

Orai ataskaitas ir orų prognozės (METAR, TAF).

turimą stotys yra geltonos ir raudonos taškus žemėlapyje.

Perkelti pele per norėdami pamatyti stoties vardą.

Tada spustelėkite, norėdami matyti oro stebėjimo ir prognozės.

Norėdami pakeisti žemėlapį: spustelėkite ant žalios mygtukų su juodo kryžiaus žemyn,; žalią mygtuką su brūkšneliu, jei norite nutolinti; arba žalių rodyklių gretimoms žemėlapius.


METAR-TAF: